Date,TemperatureHighF,TemperatureAvgF,TemperatureLowF,DewpointHighF,DewpointAvgF,DewpointLowF,HumidityHigh,HumidityAvg,HumidityLow,PressureMaxIn,PressureMinIn,WindSpeedMaxMPH,WindSpeedAvgMPH,GustSpeedMaxMPH,PrecipitationSumIn
2013-1-1,19,9,2,8,3,0,90,78,58,29.82,29.72,7,4,11,0.00
2013-1-2,28,20,7,22,13,1,90,76,52,29.75,29.64,11,4,17,0.00
2013-1-3,26,22,12,22,19,9,95,88,80,29.82,29.63,12,6,17,0.00
2013-1-4,31,21,10,20,15,6,91,80,65,29.78,29.67,14,8,23,0.00
2013-1-5,36,28,15,34,26,14,100,92,73,29.81,29.48,12,5,17,0.07
2013-1-6,34,26,15,34,23,15,100,90,75,29.89,29.47,11,6,15,0.00
2013-1-7,40,27,14,28,22,13,100,82,61,29.87,29.66,18,7,23,0.01
2013-1-8,42,34,24,33,30,24,100,85,66,29.73,29.57,16,7,22,0.00
2013-1-9,43,36,28,34,29,24,91,76,57,30.07,29.54,19,8,29,0.07
2013-1-10,42,32,20,36,30,20,100,91,74,30.10,29.51,17,6,22,0.52
2013-1-11,52,44,36,51,44,36,100,99,94,29.51,29.26,20,8,27,0.11
2013-1-12,52,38,25,50,34,22,100,85,70,29.63,29.27,17,9,25,0.00
2013-1-13,25,18,12,24,14,7,100,84,76,29.79,29.50,12,7,19,0.00
2013-1-14,27,16,8,13,9,5,89,74,51,30.03,29.80,8,3,11,0.00
2013-1-15,34,20,9,19,14,8,97,77,48,30.01,29.68,9,3,14,0.00
2013-1-16,33,26,16,31,21,10,94,80,63,29.69,29.38,13,7,21,0.00
2013-1-17,29,20,11,20,10,4,86,65,46,29.99,29.66,12,5,15,0.00
2013-1-18,41,29,10,34,24,7,90,80,68,30.01,29.44,26,10,34,0.12
2013-1-19,45,38,18,37,31,8,89,77,41,29.51,29.28,26,10,36,0.25
2013-1-20,18,11,6,7,1,-1,74,65,52,29.88,29.52,17,7,21,0.00
2013-1-21,10,3,-4,5,-4,-11,85,69,53,29.85,29.70,13,7,20,0.00
2013-1-22,8,0,-8,-3,-8,-14,79,68,53,29.94,29.84,11,6,17,0.00
2013-1-23,17,10,0,14,5,-6,93,77,65,29.96,29.67,18,6,21,0.00
2013-1-24,20,10,-1,10,2,-6,80,68,54,30.21,29.94,13,5,17,0.00
2013-1-25,25,19,15,19,14,5,97,80,59,29.94,29.54,16,7,17,0.00
2013-1-26,31,18,7,14,10,4,89,69,44,29.97,29.77,9,4,11,0.00
2013-1-27,33,27,22,33,24,14,99,88,70,29.94,29.48,15,8,20,0.00
2013-1-28,47,38,33,39,36,33,100,95,71,29.57,29.39,13,4,14,0.18
2013-1-29,59,46,36,59,46,35,99,99,99,29.44,29.07,18,5,23,0.97
2013-1-30,36,28,15,36,27,13,100,98,91,29.19,28.89,9,2,15,0.09
2013-1-31,15,10,1,13,6,-3,92,81,69,29.69,29.20,11,2,15,0.00
2013-2-1,8,2,-5,5,-3,-8,94,78,61,29.90,29.70,11,6,17,0.00
2013-2-2,13,7,0,8,3,-4,97,84,67,29.70,29.59,8,3,9,0.00
2013-2-3,21,12,1,12,7,-2,93,81,62,29.62,29.51,14,4,18,0.00
2013-2-4,19,13,6,15,10,2,96,86,71,29.59,29.50,10,4,13,0.00
2013-2-5,27,18,1,26,15,-2,97,88,79,29.68,29.37,12,5,15,0.00
2013-2-6,35,23,5,31,19,4,97,83,64,29.81,29.67,9,4,13,0.01
2013-2-7,34,31,21,33,31,21,100,98,92,29.69,29.49,7,2,9,0.01
2013-2-8,24,19,9,22,18,8,100,96,90,29.97,29.61,0,0,0,0.00
2013-2-9,28,20,7,26,20,7,100,97,91,29.97,29.66,0,0,1,0.00
2013-2-10,44,34,24,44,34,24,100,99,87,29.67,29.04,23,8,26,0.30
2013-2-11,41,31,26,37,28,22,95,88,81,29.57,29.04,18,12,27,0.13
2013-2-12,30,24,20,22,20,17,100,86,70,29.66,29.47,12,5,15,0.00
2013-2-13,44,31,19,33,27,19,100,88,64,29.46,29.30,11,3,15,0.00
2013-2-14,36,33,28,36,30,22,100,90,76,29.56,29.18,13,7,18,0.01
2013-2-15,28,21,12,27,13,6,100,72,51,29.77,29.56,14,6,16,0.00
2013-2-16,18,10,2,6,2,-3,87,72,54,29.76,29.70,11,4,16,0.00
2013-2-17,28,16,-1,15,6,-5,89,65,42,29.77,29.56,10,4,15,0.00
2013-2-18,48,35,24,44,30,15,100,83,69,29.55,29.04,18,9,23,0.37
2013-2-19,30,14,6,30,11,2,100,90,79,29.72,29.12,0,0,0,0.00
2013-2-20,22,12,4,13,6,0,90,78,66,29.96,29.72,8,1,9,0.00
2013-2-21,26,19,9,25,17,8,100,92,81,29.99,29.65,17,7,25,0.00
2013-2-22,31,27,24,31,27,24,100,99,95,29.65,29.39,17,6,20,0.00
2013-2-23,32,25,20,26,22,18,100,86,70,29.52,29.45,9,5,15,0.01
2013-2-24,42,27,16,29,21,16,100,81,58,29.74,29.53,7,2,9,0.01
2013-2-25,46,30,15,32,24,15,100,82,54,29.77,29.63,8,3,11,0.00
2013-2-26,34,32,30,32,30,27,99,91,76,29.63,29.20,21,12,28,0.00
2013-2-27,33,31,28,33,30,28,99,99,99,29.35,29.18,16,9,17,0.02
2013-2-28,33,30,24,32,28,21,100,92,83,29.70,29.35,16,10,21,0.00
2013-3-1,24,23,21,21,20,17,94,90,84,29.82,29.68,17,10,21,0.00
2013-3-2,25,19,10,17,14,8,95,81,69,29.81,29.75,10,6,11,0.00
2013-3-3,32,19,8,18,10,3,97,72,44,29.75,29.68,8,2,10,0.00
2013-3-4,34,23,8,25,18,4,91,80,65,29.72,29.63,13,5,16,0.00
2013-3-5,31,28,25,29,27,24,99,93,81,29.64,29.48,15,8,19,0.00
2013-3-6,34,29,25,29,26,24,100,91,80,29.89,29.64,12,8,15,0.00
2013-3-7,41,30,20,25,22,18,100,76,53,30.02,29.88,5,2,8,0.00
2013-3-8,44,30,15,32,25,15,99,86,59,30.05,29.88,11,4,15,0.00
2013-3-9,42,35,29,36,32,25,100,87,74,29.88,29.42,13,7,20,0.07
2013-3-10,45,40,36,44,40,36,100,99,95,29.43,29.23,13,4,17,0.63
2013-3-11,40,34,30,39,33,25,99,95,80,29.34,29.14,10,3,14,0.04
2013-3-12,35,29,24,30,26,22,100,90,65,29.58,29.34,18,6,18,0.02
2013-3-13,33,24,18,22,14,10,94,68,43,29.89,29.58,15,8,20,0.00
2013-3-14,38,27,15,29,21,11,100,77,52,29.89,29.67,11,3,15,0.00
2013-3-15,40,32,27,36,31,27,100,96,87,29.66,29.40,11,4,16,0.06
2013-3-16,32,28,24,30,24,20,100,88,68,29.72,29.39,14,7,20,0.00
2013-3-17,32,26,18,25,18,11,88,73,60,29.83,29.61,13,8,17,0.00
2013-3-18,35,28,18,35,26,13,100,93,78,29.61,29.19,19,8,29,0.19
2013-3-19,31,20,12,15,12,8,86,70,50,29.62,29.31,20,12,28,0.06
2013-3-20,22,15,9,10,6,2,73,65,55,29.65,29.60,16,7,21,0.00
2013-3-21,31,19,8,16,10,2,80,68,52,29.63,29.59,12,5,15,0.00
2013-3-22,38,25,12,20,14,8,84,66,38,29.68,29.61,6,3,9,0.00
2013-3-23,44,29,0,28,20,14,91,71,43,29.73,29.66,6,2,9,0.00
2013-3-24,35,32,21,30,27,19,96,84,77,30.34,29.75,17,12,23,1.12
2013-3-25,33,30,26,28,26,23,97,85,75,30.07,29.77,18,10,21,0.00
2013-3-26,40,34,30,30,27,25,87,76,66,30.23,30.06,10,6,12,0.00
2013-3-27,42,35,27,28,24,20,79,65,48,30.30,30.22,10,4,11,0.00
2013-3-28,49,36,27,27,23,19,79,60,39,30.32,30.27,7,3,9,0.00
2013-3-29,52,39,27,29,23,19,77,56,33,30.30,30.23,6,2,8,0.00
2013-3-30,56,44,29,44,33,22,95,67,51,30.24,29.83,16,7,21,0.00
2013-3-31,53,41,21,44,36,19,100,85,60,30.45,29.71,14,7,21,1.12
2013-4-1,37,30,26,24,18,14,91,61,42,30.25,29.97,12,7,23,0.00
2013-4-2,42,32,22,20,16,14,80,56,35,30.38,30.24,12,5,17,0.00
2013-4-3,47,34,22,25,17,8,82,54,25,30.51,30.35,12,5,16,0.00
2013-4-4,61,44,29,38,27,11,72,53,38,30.35,30.04,12,6,18,0.00
2013-4-5,48,38,29,33,28,23,97,68,46,30.31,30.10,10,6,13,0.00
2013-4-6,64,48,33,53,38,24,100,70,48,30.23,29.64,24,12,30,0.15
2013-4-7,59,44,35,52,38,34,100,81,52,30.06,29.65,13,7,22,0.01
2013-4-8,57,43,35,50,41,33,100,94,75,30.08,29.66,14,6,16,0.54
2013-4-9,40,38,36,40,38,36,99,99,99,30.11,29.96,18,9,21,1.20
2013-4-10,38,36,33,37,36,33,99,99,99,30.19,29.92,20,11,25,0.89
2013-4-11,37,36,34,37,36,34,99,99,99,30.00,29.65,21,12,30,0.41
2013-4-12,42,37,34,40,36,32,100,96,83,30.16,29.60,14,5,18,0.12
2013-4-13,40,35,0,32,30,28,95,83,62,30.35,30.15,14,6,20,0.02
2013-4-14,53,38,30,50,36,28,100,92,81,30.37,30.00,18,8,24,0.08
2013-4-15,65,52,40,56,48,39,100,88,53,30.34,29.99,27,7,36,0.61
2013-4-16,54,43,34,40,37,33,100,80,53,30.66,30.32,9,4,12,0.01
2013-4-17,43,41,38,43,38,33,100,91,74,30.67,30.22,17,8,25,0.79
2013-4-18,58,47,39,58,46,35,100,98,86,30.22,29.75,18,6,28,1.15
2013-4-19,42,36,30,36,31,26,100,82,68,30.25,29.76,18,11,30,0.00
2013-4-20,46,35,26,27,22,17,85,63,36,30.76,30.25,11,6,15,0.00
2013-4-21,50,40,29,34,28,24,92,66,44,30.86,30.63,17,10,23,0.00
2013-4-22,68,54,41,45,37,33,75,57,37,30.65,30.40,15,9,21,0.00
2013-4-23,55,44,37,52,42,35,100,93,62,30.40,30.27,10,6,15,0.39
2013-4-24,56,43,34,35,30,24,88,63,32,30.42,30.30,11,6,17,0.00
2013-4-25,54,45,39,38,34,29,95,69,42,30.66,30.35,12,6,19,0.01
2013-4-26,69,54,38,51,40,29,79,62,48,30.66,30.54,23,11,30,0.09
2013-4-27,72,58,45,52,47,43,100,70,43,30.63,30.40,13,5,18,0.00
2013-4-28,74,59,50,55,49,43,100,71,46,30.40,30.20,10,3,14,0.00
2013-4-29,73,62,50,59,55,50,99,81,54,30.26,30.13,16,6,21,0.05
2013-4-30,88,74,62,64,60,54,95,67,36,30.31,30.11,21,14,30,0.00
2013-5-1,86,73,51,62,57,44,85,61,32,30.58,30.31,16,8,21,0.00
2013-5-2,57,48,39,52,44,38,100,86,65,30.63,30.55,14,8,19,0.51
2013-5-3,48,43,38,48,42,37,100,99,96,30.56,30.35,11,7,17,0.51
2013-5-4,72,58,46,54,49,45,100,75,49,30.43,30.34,11,6,16,0.01
2013-5-5,74,60,46,50,46,41,100,64,39,30.45,30.40,10,5,17,0.00
2013-5-6,79,63,48,50,41,33,88,50,25,30.45,30.38,8,3,11,0.00
2013-5-7,81,65,48,52,44,39,90,53,28,30.45,30.38,9,3,12,0.00
2013-5-8,85,67,46,57,49,45,100,60,29,30.43,30.35,7,2,13,0.00
2013-5-9,70,58,43,64,53,43,100,85,59,30.35,30.26,15,4,18,0.28
2013-5-10,49,45,40,48,44,40,100,98,93,30.35,30.20,13,7,17,0.79
2013-5-11,54,46,38,52,39,31,100,80,47,30.38,30.14,16,6,22,0.01
2013-5-12,56,45,37,34,31,27,79,60,38,30.46,30.38,11,6,15,0.00
2013-5-13,67,49,32,42,34,27,100,64,28,30.53,30.32,10,4,16,0.00
2013-5-14,88,69,47,64,52,36,76,58,37,30.32,29.96,16,7,22,0.02
2013-5-15,83,73,56,64,52,44,80,52,30,30.24,29.96,9,4,14,0.00
2013-5-16,88,68,55,57,48,34,80,51,29,30.37,30.22,11,5,17,0.00
2013-5-17,65,56,48,52,47,34,100,73,46,30.48,30.35,10,6,15,0.30
2013-5-18,81,65,51,66,57,48,96,77,56,30.44,30.34,9,4,15,0.00
2013-5-19,86,72,57,71,65,56,100,80,60,30.34,30.08,20,7,27,0.01
2013-5-20,88,77,68,68,64,61,96,69,44,30.15,30.06,17,7,25,0.06
2013-5-21,82,70,62,68,64,59,100,82,52,30.09,30.01,20,7,27,0.11
2013-5-22,70,61,54,70,61,54,100,98,89,30.14,30.01,7,2,9,0.63
2013-5-23,58,50,39,54,47,37,100,91,66,30.66,30.13,14,6,21,0.07
2013-5-24,68,50,34,46,39,34,99,70,39,30.78,30.66,8,3,11,0.00
2013-5-25,64,52,41,44,39,33,91,64,39,30.74,30.64,8,3,12,0.00
2013-5-26,68,54,38,51,43,35,100,70,45,30.65,30.52,12,4,17,0.02
2013-5-27,54,52,50,52,50,43,100,93,72,30.52,30.25,11,6,17,0.04
2013-5-28,76,62,50,71,61,50,100,98,83,30.25,30.07,10,2,14,1.28
2013-5-29,84,73,64,73,68,64,99,86,62,30.29,30.13,12,5,17,0.01
2013-5-30,86,76,63,75,70,63,99,84,64,30.27,30.13,23,11,31,0.20
2013-5-31,78,69,63,72,66,62,100,90,68,30.22,30.07,18,8,26,0.20
2013-6-1,79,71,61,70,67,61,100,89,68,30.08,30.00,14,6,21,0.09
2013-6-2,61,55,46,61,51,46,100,87,64,30.38,30.04,9,5,11,0.00
2013-6-3,78,59,43,56,46,40,100,68,34,30.45,30.37,7,3,10,0.00
2013-6-4,75,60,50,52,47,42,82,64,43,30.53,30.43,9,3,14,0.00
2013-6-5,68,57,51,56,52,48,100,82,60,30.50,30.32,8,3,14,0.00
2013-6-6,62,56,52,56,53,49,100,92,77,30.32,30.25,5,2,8,0.00
2013-6-7,76,62,50,56,49,42,100,67,34,30.33,30.27,8,3,12,0.00
2013-6-8,79,62,47,57,51,45,100,70,38,30.38,30.27,5,2,7,0.00
2013-6-9,81,67,53,66,59,52,100,77,55,30.38,30.19,13,4,21,0.07
2013-6-10,86,70,60,70,66,60,100,88,59,30.22,30.12,5,2,7,0.00
2013-6-11,89,75,60,71,66,60,99,78,53,30.27,30.16,7,2,11,0.00
2013-6-12,80,70,62,70,67,62,100,90,71,30.27,29.99,14,4,18,0.02
2013-6-13,78,67,55,64,59,53,100,80,58,30.43,30.04,10,4,13,0.00
2013-6-14,83,66,54,62,56,50,100,72,48,30.49,30.36,7,3,11,0.00
2013-6-15,82,68,55,75,64,51,100,89,74,30.42,30.17,9,4,13,0.02
2013-6-16,90,76,63,72,64,57,99,72,37,30.27,30.19,8,3,14,0.00
2013-6-17,92,72,57,72,61,56,97,74,40,30.32,30.20,8,2,12,0.01
2013-6-18,74,63,54,61,54,44,100,75,48,30.43,30.30,8,4,12,0.00
2013-6-19,79,64,49,55,49,42,91,62,40,30.49,30.42,8,3,15,0.00
2013-6-20,89,73,57,67,56,40,72,58,43,30.49,30.41,9,5,14,0.00
2013-6-21,78,71,65,72,67,59,100,90,72,30.47,30.24,19,5,26,0.05
2013-6-22,83,72,66,77,71,66,100,95,81,30.47,30.29,16,4,22,0.01
2013-6-23,89,76,64,79,72,64,100,87,68,30.37,30.22,11,5,16,0.00
2013-6-24,85,74,68,74,71,68,100,91,69,30.37,30.18,8,3,12,0.00
2013-6-25,89,72,65,78,70,65,100,94,68,30.29,30.14,10,3,15,0.02
2013-6-26,87,73,68,75,70,67,100,93,65,30.17,30.05,12,3,16,0.01
2013-6-27,91,76,66,78,72,66,100,88,58,30.12,30.03,8,2,11,0.04
2013-6-28,81,72,64,68,66,63,100,85,61,30.06,29.94,8,3,16,0.02
2013-6-29,77,67,63,66,63,59,100,87,59,30.15,29.94,12,5,17,0.02
2013-6-30,82,69,60,64,56,48,91,67,39,30.36,30.14,9,5,13,0.00
2013-7-1,82,70,58,59,53,48,82,59,38,30.43,30.35,8,4,15,0.00
2013-7-2,78,65,56,61,54,47,100,72,39,30.44,30.39,7,2,11,0.00
2013-7-3,72,65,60,68,62,54,100,92,72,30.40,30.35,5,2,8,0.00
2013-7-4,87,74,60,70,64,59,100,77,45,30.41,30.35,7,2,11,0.00
2013-7-5,89,75,62,71,66,62,100,76,51,30.40,30.33,11,3,15,0.01
2013-7-6,92,76,63,72,67,62,100,77,43,30.38,30.28,7,3,11,0.00
2013-7-7,91,78,68,78,73,68,100,85,60,30.32,30.25,7,2,11,0.00
2013-7-8,91,78,71,82,75,71,100,92,68,30.31,30.23,8,3,12,0.04
2013-7-9,86,75,68,80,74,68,100,97,78,30.32,30.15,7,3,14,0.00
2013-7-10,81,75,62,76,68,61,100,81,56,30.33,30.15,9,4,12,0.00
2013-7-11,86,70,56,66,60,53,99,74,46,30.43,30.33,6,2,9,0.00
2013-7-12,92,71,53,65,58,51,100,71,35,30.47,30.39,6,2,11,0.00
2013-7-13,86,74,60,67,63,58,100,73,45,30.48,30.40,8,4,12,0.00
2013-7-14,90,77,64,75,70,63,100,80,58,30.54,30.47,7,2,10,0.00
2013-7-15,95,80,68,81,75,68,100,86,60,30.58,30.53,9,2,13,0.00
2013-7-16,96,83,72,82,78,72,100,85,61,30.60,30.53,4,2,8,0.00
2013-7-17,97,85,75,82,78,72,100,81,60,30.61,30.47,5,2,9,0.00
2013-7-18,96,85,74,81,77,74,100,80,57,30.48,30.22,6,2,14,0.00
2013-7-19,94,84,74,79,76,71,94,78,60,30.23,30.04,11,5,19,0.02
2013-7-20,90,75,63,72,67,61,100,80,50,30.27,30.12,5,2,9,0.00
2013-7-21,85,69,62,72,65,60,100,88,62,30.27,30.17,9,2,13,0.04
2013-7-22,88,76,62,76,70,62,99,85,61,30.18,29.99,7,3,14,0.02
2013-7-23,76,69,58,68,63,58,100,83,59,30.29,29.99,10,4,12,0.01
2013-7-24,82,64,52,60,56,52,100,79,46,30.36,30.28,4,2,7,0.01
2013-7-25,81,68,52,67,60,52,100,80,58,30.37,30.25,7,3,11,0.00
2013-7-26,75,66,59,72,65,58,100,97,83,30.27,30.14,10,3,17,0.48
2013-7-27,64,58,52,59,54,51,100,89,66,30.21,30.14,9,4,13,0.00
2013-7-28,71,59,51,58,54,51,99,85,62,30.27,30.11,8,4,13,0.00
2013-7-29,83,65,52,64,58,52,100,82,51,30.46,30.27,5,2,8,0.00
2013-7-30,78,65,57,68,62,57,100,92,68,30.46,30.36,6,3,11,0.14
2013-7-31,82,67,61,72,65,60,99,95,72,30.36,30.22,7,1,11,0.43
2013-8-1,84,69,60,68,61,59,100,80,49,30.27,29.90,7,2,9,0.00
2013-8-2,84,69,0,73,65,59,100,84,56,29.98,29.82,5,2,9,0.41
2013-8-3,81,68,0,64,59,56,100,76,47,30.08,29.89,7,2,9,0.00
2013-8-4,81,66,57,64,60,56,100,83,49,30.07,29.98,5,2,9,0.00
2013-8-5,76,65,58,68,62,58,100,92,74,29.99,29.73,9,4,14,0.00
2013-8-6,85,73,63,75,70,62,100,89,69,29.74,29.66,7,2,13,0.00
2013-8-7,86,76,64,77,71,63,100,86,58,29.83,29.62,8,3,10,0.00
2013-8-8,82,69,59,67,60,54,99,75,45,29.91,29.82,6,2,9,0.00
2013-8-9,84,70,56,70,62,52,100,80,61,29.90,29.83,6,2,10,0.00
2013-8-10,81,68,55,67,61,55,100,82,53,30.00,29.91,5,1,7,0.00
2013-8-11,79,66,56,70,64,56,100,94,72,29.99,29.87,5,1,7,0.06
2013-8-12,85,72,64,74,68,62,100,89,58,29.88,29.74,6,2,8,0.52
2013-8-13,72,62,52,63,54,50,100,77,54,30.01,29.82,7,4,14,0.00
2013-8-14,80,63,48,58,54,48,99,77,44,30.06,29.97,6,2,8,0.00
2013-8-15,83,68,54,64,58,54,100,76,44,29.99,29.93,5,2,8,0.00
2013-8-16,87,69,56,65,60,56,100,77,44,30.04,29.95,5,1,7,0.00
2013-8-17,85,68,54,70,60,53,100,79,47,30.09,30.02,5,2,8,0.00
2013-8-18,84,69,53,72,61,53,99,78,51,30.06,29.94,8,2,10,0.00
2013-8-19,86,71,57,70,65,57,100,83,54,29.95,29.87,10,1,10,0.00
2013-8-20,88,75,63,73,69,63,100,82,58,30.09,29.84,14,3,14,0.00
2013-8-21,90,79,68,76,72,67,100,81,60,30.09,29.75,13,4,14,0.01
2013-8-22,82,72,64,78,70,62,100,96,79,30.17,30.04,17,3,17,0.61
2013-8-23,85,71,59,69,63,59,100,79,46,30.21,30.14,8,2,10,0.00
2013-8-24,87,72,60,72,65,60,100,82,56,30.28,30.20,10,4,11,0.01
2013-8-25,91,79,67,76,70,61,95,74,51,30.24,30.14,16,5,16,0.00
2013-8-26,92,79,71,81,74,68,92,83,66,30.16,30.01,13,4,13,0.00
2013-8-27,96,84,74,81,77,74,100,81,61,30.01,29.84,14,3,14,0.00
2013-8-28,90,78,68,78,74,68,100,88,63,30.08,29.87,9,2,10,0.00
2013-8-29,93,77,64,78,71,64,100,84,56,30.11,30.00,11,2,11,0.00
2013-8-30,97,76,67,82,72,67,100,91,57,30.02,29.80,28,3,28,0.50
2013-8-31,82,70,63,74,68,63,100,94,74,29.90,29.82,8,1,8,0.00
2013-9-1,87,73,61,77,69,61,100,90,68,29.84,29.74,10,2,14,0.01
2013-9-2,75,67,56,67,62,56,100,86,64,29.83,29.73,7,4,10,1.15
2013-9-3,80,64,50,62,57,50,100,82,49,29.91,29.82,4,1,7,0.00
2013-9-4,87,68,54,69,62,54,99,84,53,29.94,29.84,5,1,9,0.00
2013-9-5,78,66,51,70,57,50,100,78,48,30.09,29.94,7,2,10,0.00
2013-9-6,87,70,51,73,63,50,99,82,60,30.04,29.81,12,3,15,0.00
2013-9-7,85,74,66,75,70,66,100,90,65,29.81,29.71,7,2,13,0.01
2013-9-8,74,68,65,70,67,65,100,97,83,29.88,29.78,4,2,11,0.00
2013-9-9,92,79,67,82,75,67,99,88,69,29.80,29.40,6,2,15,0.00
2013-9-10,97,85,75,76,71,67,83,64,41,29.80,29.55,4,2,19,0.00
2013-9-11,86,76,69,73,70,68,100,85,61,29.92,29.62,4,1,11,0.00
2013-9-12,80,68,59,70,62,50,100,84,58,29.94,29.78,9,2,17,0.00
2013-9-13,69,57,46,51,48,46,100,76,46,30.02,29.94,6,2,12,0.00
2013-9-14,73,58,42,56,49,41,99,74,47,29.98,29.82,4,1,11,0.00
2013-9-15,59,56,53,59,54,48,100,94,71,30.02,29.80,5,1,13,0.38
2013-9-16,68,54,44,55,49,44,100,83,56,30.18,30.02,5,2,11,0.00
2013-9-17,77,57,44,65,53,43,100,87,62,30.14,29.92,5,2,13,0.00
2013-9-18,80,68,57,71,65,56,100,91,74,29.92,29.71,7,3,18,0.12
2013-9-19,85,73,67,79,71,66,100,96,82,29.74,29.55,8,3,18,0.65
2013-9-20,75,66,57,71,64,57,100,92,74,29.63,29.53,3,1,13,0.03
2013-9-21,61,55,47,56,52,47,100,90,73,29.75,29.62,5,2,11,0.00
2013-9-22,71,54,44,52,47,44,100,81,45,29.87,29.75,3,1,8,0.00
2013-9-23,75,54,21,69,50,5,100,87,49,29.93,29.84,97,2,97,0.00
2013-9-24,72,59,50,59,54,50,100,86,57,29.87,29.77,4,1,11,0.01
2013-9-25,73,59,49,64,54,49,100,86,56,29.81,29.75,2,0,9,0.01
2013-9-26,78,61,49,65,55,49,99,84,44,29.89,29.78,4,1,12,0.01
2013-9-27,80,64,51,62,57,51,99,80,51,29.96,29.86,6,2,15,0.01
2013-10-14,63,49,36,52,44,36,100,86,60,30.18,29.90,4,1,14,0.02
2013-10-15,61,53,46,60,53,45,100,98,92,29.90,29.51,5,2,15,0.45
2013-10-16,55,50,46,55,49,45,100,99,95,29.69,29.55,3,1,14,0.02
2013-10-17,52,46,39,51,46,39,100,99,94,29.68,29.57,3,1,8,0.25
2013-10-18,50,43,38,48,42,38,100,94,82,29.69,29.56,4,1,14,0.00
2013-10-19,57,44,37,44,40,36,100,86,54,29.66,29.50,6,1,18,0.00
2013-10-20,52,43,33,49,41,33,100,92,65,29.61,29.47,5,1,14,0.07
2013-10-21,48,40,30,48,35,25,100,81,65,29.68,29.50,4,2,21,0.00
2013-10-22,48,36,27,35,30,25,95,80,57,29.71,29.64,3,1,11,0.00
2013-10-23,45,36,28,33,30,26,100,78,52,29.75,29.66,5,2,11,0.00
2013-10-24,45,36,30,32,30,26,95,78,59,30.02,29.74,5,2,11,0.00
2013-10-25,53,40,26,35,30,25,100,69,48,30.10,29.67,6,2,21,0.18
2013-10-26,52,46,40,41,34,30,72,62,51,29.82,29.54,9,4,21,0.02
2013-10-27,57,42,28,37,32,27,100,70,44,29.81,29.67,5,1,15,0.00
2013-10-28,45,42,36,39,36,31,93,80,70,30.15,29.79,6,3,17,0.00
2013-10-29,54,43,36,45,40,32,100,89,72,30.13,29.88,5,1,14,0.00
2013-10-30,60,51,45,59,51,45,100,99,96,29.88,29.50,11,2,27,0.03
2013-10-31,62,57,44,62,57,43,99,99,99,29.51,29.00,6,2,16,0.84
2013-11-1,46,43,41,46,43,41,100,99,97,29.48,29.08,5,2,19,0.07
2013-11-2,46,41,38,44,40,38,100,98,87,29.88,29.47,5,2,11,0.02
2013-11-3,53,42,29,46,38,28,99,87,55,30.03,29.88,8,2,21,0.00
2013-11-4,56,49,43,48,43,39,95,80,64,29.99,29.80,14,6,27,0.00
2013-11-5,55,51,48,52,50,47,100,95,84,29.99,29.65,11,4,27,0.05
2013-11-6,55,44,31,55,43,27,100,95,77,29.88,29.49,11,5,26,0.48
2013-11-7,43,34,26,36,31,26,100,87,72,29.95,29.88,4,1,13,0.00
2013-11-8,47,38,25,37,32,25,100,83,67,30.03,29.59,13,4,26,0.00
2013-11-9,54,47,40,44,39,30,84,73,61,29.80,29.50,12,5,28,0.02
2013-11-10,53,42,36,35,32,29,79,68,48,30.04,29.79,8,3,17,0.00
2013-11-11,44,34,23,37,29,18,99,84,72,30.24,29.78,10,4,17,0.10
2013-11-12,32,24,17,22,18,14,93,76,57,30.40,30.24,7,3,14,0.00
2013-11-13,43,30,17,23,18,14,87,64,36,30.27,29.81,8,4,23,0.02
2013-11-14,47,40,32,32,27,20,71,61,51,29.81,29.63,5,3,17,0.00
2013-11-15,58,44,36,38,34,29,94,68,46,29.68,29.62,6,3,13,0.00
2013-11-16,59,49,38,59,49,36,100,98,92,29.65,29.27,16,8,34,1.92
2013-11-17,64,52,39,64,52,37,100,98,87,29.61,29.02,15,6,27,1.54
2013-11-18,39,34,26,38,29,23,95,83,69,30.16,29.60,9,5,24,0.78
2013-11-19,42,31,20,32,26,20,100,86,58,30.28,30.16,6,2,12,0.00
2013-11-20,44,36,31,36,32,28,100,85,59,30.18,30.02,12,5,24,0.23
2013-11-21,46,41,36,45,40,36,100,98,90,30.15,30.02,6,2,10,0.02
2013-11-22,39,32,23,39,29,19,100,89,72,30.38,30.14,10,5,18,0.02
2013-11-23,24,18,11,20,10,4,86,71,59,30.58,30.29,13,7,22,0.00
2013-11-24,28,17,6,10,7,3,90,64,42,30.56,30.17,8,3,22,0.73
2013-11-25,29,25,20,28,22,9,100,86,57,30.17,29.92,7,4,24,1.04
2013-11-26,31,25,13,29,20,6,100,81,59,30.08,29.92,12,5,19,0.00
2013-11-27,26,17,8,15,11,5,90,76,63,30.13,30.06,8,4,14,0.00
2013-11-28,29,22,13,19,16,11,94,77,64,30.38,30.06,6,2,11,0.00
2013-11-29,32,23,9,24,18,8,100,82,57,30.51,30.25,7,2,12,0.00
2013-11-30,48,36,28,35,30,23,94,79,59,30.26,29.94,7,3,16,0.17
2013-12-1,44,34,26,32,29,25,100,85,60,30.04,29.89,4,1,9,0.00
2013-12-2,41,33,24,38,31,24,100,92,73,29.89,29.69,7,2,14,0.03
2013-12-3,40,38,33,40,37,33,99,99,99,29.69,29.61,7,3,16,0.02
2013-12-4,51,43,36,51,43,35,99,99,99,29.68,29.40,7,3,25,0.25
2013-12-5,35,24,15,35,19,10,100,81,68,30.15,29.53,10,5,29,1.92
2013-12-6,17,12,7,11,6,1,88,77,65,30.42,30.13,6,4,12,0.00
2013-12-7,18,7,0,5,1,-3,89,76,56,30.57,30.42,5,2,11,0.00
2013-12-8,24,17,4,24,14,1,100,90,68,30.50,29.83,7,2,17,0.00
2013-12-9,24,12,-4,24,7,-8,100,83,60,30.07,29.80,7,3,23,0.13
2013-12-10,21,7,-8,13,2,-11,91,78,64,30.16,29.83,10,4,30,0.71
2013-12-11,14,6,-6,12,0,-11,95,76,60,30.40,30.14,10,3,14,0.00
2013-12-12,20,8,-7,11,1,-11,83,74,56,30.37,30.06,6,2,23,0.10
2013-12-13,28,20,12,24,17,9,95,87,70,30.09,30.02,7,3,14,0.00
2013-12-14,28,24,18,27,23,18,100,97,92,30.05,29.82,7,3,21,0.00
2013-12-15,20,11,2,20,5,-6,100,75,57,30.01,29.79,6,3,18,0.07
2013-12-16,17,8,-4,12,2,-9,94,77,50,30.03,29.89,8,2,14,0.00
2013-12-17,35,24,13,27,20,12,100,85,67,29.94,29.79,6,3,21,0.05
2013-12-18,34,24,11,28,17,7,87,73,44,30.02,29.69,14,4,34,1.54
2013-12-19,32,30,26,32,29,25,100,94,83,29.87,29.70,6,2,15,0.00
2013-12-20,32,27,24,31,27,24,99,99,99,29.77,29.68,0,0,0,0.00
2013-12-21,32,28,24,32,27,24,100,99,99,29.79,29.57,0,0,0,0.00
2013-12-22,31,25,18,31,24,18,100,99,95,30.00,29.55,0,0,0,0.00
2013-12-23,19,10,-3,18,8,-7,97,90,81,30.27,30.00,0,0,0,0.00
2013-12-24,24,5,-7,13,1,-10,91,82,55,30.39,30.19,0,0,0,0.00
2013-12-25,22,19,10,21,17,8,96,91,86,30.19,29.95,0,0,0,0.00
2013-12-26,26,20,9,24,17,6,95,88,81,30.14,29.95,0,0,0,0.00
2013-12-27,37,29,14,31,25,14,100,87,71,30.15,29.90,3,0,12,0.02
2013-12-28,45,38,28,35,31,26,92,79,66,29.95,29.67,10,4,20,0.56
2013-12-29,40,21,-2,31,16,-7,100,81,69,30.09,29.64,14,6,23,0.03
2013-12-30,5,-2,-12,-3,-9,-16,85,72,53,30.19,30.06,3,1,9,0.02
2013-12-31,11,3,-4,3,-1,-7,88,81,63,30.22,30.04,6,1,11,0.00
2014-1-1,15,8,1,13,4,-7,92,84,66,30.22,30.13,7,5,13,0.00
2014-1-2,14,7,-3,7,2,-9,91,81,66,30.28,30.09,8,5,14,0.00